< < Back
Terminal Aerodrome Forecast


Current Version              Previous Versions:   1  2  3  4  5  6  7  8  9  

Terminal Aerodrome Forecast

829
FTUS44 KOHX 222300
TAFBNA
TAF
KBNA 222329Z 2300/2324 15010G18KT P6SM VCSH BKN010 OVC015
     FM230500 17012KT 4SM -SHRA BR OVC009
     FM231300 17007KT 2SM -SHRA BR OVC007=

Latest METAR

874
SAUS70 KWBC 230400 RRB
MTRBNA
METAR KBNA 230353Z 16012KT 10SM OVC011 11/09 A2974 RMK AO2 RAB08E27
SLP068 P0003 T01110094


USA.gov is the U.S. government's official web portal to all federal, state and local government web resources and services.